Terminal Aerodrome Forecast
Issued by NWS Twin Cities, MN

Home | Current Version | Previous Version | Graphics & Text | Print | Product List | Glossary On
Versions: 1 2 3 4 5 6 7 8 9 10 11 12 13 14 15 16 17 18 19 20 21 22 23 24 25 26 27
986
FTUS43 KMPX 212320
TAFMSP
TAF
KMSP 212320Z 2200/2306 01011KT P6SM FEW250
     FM220600 05006KT P6SM FEW250
     FM221400 11007KT P6SM SCT250
     FM222200 14010KT P6SM BKN150=

USA.gov is the U.S. government's official web portal to all federal, state and local government web resources and services.